sensor_id;sensor_type;location;lat;lon;timestamp;P1;durP1;ratioP1;P2;durP2;ratioP2
78844;SDS011;68195;50.854;2.860;2023-05-07T00:00:50;11.00;;;5.88;;
78844;SDS011;68195;50.854;2.860;2023-05-07T00:03:18;12.32;;;6.03;;
78844;SDS011;68195;50.854;2.860;2023-05-07T00:05:45;13.95;;;6.40;;
78844;SDS011;68195;50.854;2.860;2023-05-07T00:08:11;14.75;;;6.70;;
78844;SDS011;68195;50.854;2.860;2023-05-07T00:10:39;8.73;;;6.15;;
78844;SDS011;68195;50.854;2.860;2023-05-07T00:13:07;8.95;;;5.90;;
78844;SDS011;68195;50.854;2.860;2023-05-07T00:15:32;8.43;;;6.30;;
78844;SDS011;68195;50.854;2.860;2023-05-07T00:17:57;11.98;;;5.68;;
78844;SDS011;68195;50.854;2.860;2023-05-07T00:20:28;10.15;;;6.15;;
78844;SDS011;68195;50.854;2.860;2023-05-07T00:22:55;11.25;;;6.13;;
78844;SDS011;68195;50.854;2.860;2023-05-07T00:25:23;12.30;;;6.88;;
78844;SDS011;68195;50.854;2.860;2023-05-07T00:27:49;9.75;;;6.18;;
78844;SDS011;68195;50.854;2.860;2023-05-07T00:30:18;11.45;;;6.68;;
78844;SDS011;68195;50.854;2.860;2023-05-07T00:32:44;13.50;;;6.47;;
78844;SDS011;68195;50.854;2.860;2023-05-07T00:35:10;11.98;;;6.90;;
78844;SDS011;68195;50.854;2.860;2023-05-07T00:37:38;11.98;;;6.45;;
78844;SDS011;68195;50.854;2.860;2023-05-07T00:40:06;11.40;;;6.65;;
78844;SDS011;68195;50.854;2.860;2023-05-07T00:42:34;10.68;;;6.60;;
78844;SDS011;68195;50.854;2.860;2023-05-07T00:45:02;9.35;;;6.82;;
78844;SDS011;68195;50.854;2.860;2023-05-07T00:47:27;11.80;;;6.70;;
78844;SDS011;68195;50.854;2.860;2023-05-07T00:49:56;12.57;;;6.75;;
78844;SDS011;68195;50.854;2.860;2023-05-07T00:52:22;10.57;;;6.20;;
78844;SDS011;68195;50.854;2.860;2023-05-07T00:54:53;11.02;;;6.13;;
78844;SDS011;68195;50.854;2.860;2023-05-07T00:57:21;10.07;;;6.65;;
78844;SDS011;68195;50.854;2.860;2023-05-07T00:59:50;11.48;;;6.28;;
78844;SDS011;68195;50.854;2.860;2023-05-07T01:02:16;12.85;;;6.25;;
78844;SDS011;68195;50.854;2.860;2023-05-07T01:04:44;10.15;;;6.13;;
78844;SDS011;68195;50.854;2.860;2023-05-07T01:07:12;12.52;;;7.32;;
78844;SDS011;68195;50.854;2.860;2023-05-07T01:09:38;13.75;;;6.75;;
78844;SDS011;68195;50.854;2.860;2023-05-07T01:12:07;11.18;;;6.63;;
78844;SDS011;68195;50.854;2.860;2023-05-07T01:14:35;11.40;;;5.70;;
78844;SDS011;68195;50.854;2.860;2023-05-07T01:17:01;11.38;;;6.50;;
78844;SDS011;68195;50.854;2.860;2023-05-07T01:19:26;10.70;;;6.28;;
78844;SDS011;68195;50.854;2.860;2023-05-07T01:22:00;11.80;;;6.30;;
78844;SDS011;68195;50.854;2.860;2023-05-07T01:24:29;11.68;;;6.97;;
78844;SDS011;68195;50.854;2.860;2023-05-07T01:26:56;12.00;;;6.95;;
78844;SDS011;68195;50.854;2.860;2023-05-07T01:29:21;13.10;;;7.03;;
78844;SDS011;68195;50.854;2.860;2023-05-07T01:31:49;11.03;;;6.90;;
78844;SDS011;68195;50.854;2.860;2023-05-07T01:34:16;13.82;;;7.25;;
78844;SDS011;68195;50.854;2.860;2023-05-07T01:36:45;13.07;;;7.95;;
78844;SDS011;68195;50.854;2.860;2023-05-07T01:39:12;13.52;;;7.20;;
78844;SDS011;68195;50.854;2.860;2023-05-07T01:41:38;9.20;;;6.32;;
78844;SDS011;68195;50.854;2.860;2023-05-07T01:44:04;8.80;;;6.75;;
78844;SDS011;68195;50.854;2.860;2023-05-07T01:46:31;11.65;;;6.57;;
78844;SDS011;68195;50.854;2.860;2023-05-07T01:48:57;13.75;;;6.97;;
78844;SDS011;68195;50.854;2.860;2023-05-07T01:51:33;10.25;;;7.05;;
78844;SDS011;68195;50.854;2.860;2023-05-07T01:53:59;8.60;;;6.60;;
78844;SDS011;68195;50.854;2.860;2023-05-07T01:56:26;9.52;;;6.65;;
78844;SDS011;68195;50.854;2.860;2023-05-07T01:58:52;12.35;;;6.90;;
78844;SDS011;68195;50.854;2.860;2023-05-07T02:01:19;13.63;;;6.82;;
78844;SDS011;68195;50.854;2.860;2023-05-07T02:03:47;9.45;;;6.25;;
78844;SDS011;68195;50.854;2.860;2023-05-07T02:06:15;14.50;;;7.40;;
78844;SDS011;68195;50.854;2.860;2023-05-07T02:08:42;9.32;;;6.68;;
78844;SDS011;68195;50.854;2.860;2023-05-07T02:11:08;13.60;;;6.88;;
78844;SDS011;68195;50.854;2.860;2023-05-07T02:13:38;10.23;;;6.90;;
78844;SDS011;68195;50.854;2.860;2023-05-07T02:16:07;14.20;;;6.95;;
78844;SDS011;68195;50.854;2.860;2023-05-07T02:18:35;10.38;;;6.45;;
78844;SDS011;68195;50.854;2.860;2023-05-07T02:21:01;10.90;;;6.03;;
78844;SDS011;68195;50.854;2.860;2023-05-07T02:23:26;14.40;;;7.75;;
78844;SDS011;68195;50.854;2.860;2023-05-07T02:25:51;11.95;;;6.95;;
78844;SDS011;68195;50.854;2.860;2023-05-07T02:28:19;9.55;;;6.30;;
78844;SDS011;68195;50.854;2.860;2023-05-07T02:30:47;11.98;;;6.25;;
78844;SDS011;68195;50.854;2.860;2023-05-07T02:33:17;14.35;;;7.30;;
78844;SDS011;68195;50.854;2.860;2023-05-07T02:35:45;12.57;;;7.00;;
78844;SDS011;68195;50.854;2.860;2023-05-07T02:38:10;10.07;;;6.30;;
78844;SDS011;68195;50.854;2.860;2023-05-07T02:40:36;11.98;;;6.55;;
78844;SDS011;68195;50.854;2.860;2023-05-07T02:43:05;10.02;;;6.57;;
78844;SDS011;68195;50.854;2.860;2023-05-07T02:45:33;11.50;;;7.35;;
78844;SDS011;68195;50.854;2.860;2023-05-07T02:47:58;11.48;;;7.15;;
78844;SDS011;68195;50.854;2.860;2023-05-07T02:50:26;12.43;;;7.35;;
78844;SDS011;68195;50.854;2.860;2023-05-07T02:52:57;11.77;;;7.43;;
78844;SDS011;68195;50.854;2.860;2023-05-07T02:55:23;14.75;;;7.25;;
78844;SDS011;68195;50.854;2.860;2023-05-07T02:57:48;11.15;;;7.35;;
78844;SDS011;68195;50.854;2.860;2023-05-07T03:00:14;8.45;;;7.15;;
78844;SDS011;68195;50.854;2.860;2023-05-07T03:02:44;12.90;;;6.97;;
78844;SDS011;68195;50.854;2.860;2023-05-07T03:05:10;13.23;;;8.80;;
78844;SDS011;68195;50.854;2.860;2023-05-07T03:07:39;13.07;;;8.63;;
78844;SDS011;68195;50.854;2.860;2023-05-07T03:10:04;12.00;;;7.07;;
78844;SDS011;68195;50.854;2.860;2023-05-07T03:12:35;11.85;;;7.53;;
78844;SDS011;68195;50.854;2.860;2023-05-07T03:15:00;10.93;;;8.27;;
78844;SDS011;68195;50.854;2.860;2023-05-07T03:17:28;9.82;;;7.57;;
78844;SDS011;68195;50.854;2.860;2023-05-07T03:19:56;10.77;;;7.20;;
78844;SDS011;68195;50.854;2.860;2023-05-07T03:22:23;13.52;;;7.50;;
78844;SDS011;68195;50.854;2.860;2023-05-07T03:24:49;10.75;;;7.10;;
78844;SDS011;68195;50.854;2.860;2023-05-07T03:27:14;11.05;;;7.70;;
78844;SDS011;68195;50.854;2.860;2023-05-07T03:29:42;12.50;;;7.97;;
78844;SDS011;68195;50.854;2.860;2023-05-07T03:32:10;9.45;;;7.35;;
78844;SDS011;68195;50.854;2.860;2023-05-07T03:34:35;15.25;;;7.80;;
78844;SDS011;68195;50.854;2.860;2023-05-07T03:37:05;9.25;;;7.43;;
78844;SDS011;68195;50.854;2.860;2023-05-07T03:39:31;13.57;;;7.82;;
78844;SDS011;68195;50.854;2.860;2023-05-07T03:41:58;14.27;;;8.45;;
78844;SDS011;68195;50.854;2.860;2023-05-07T03:44:27;14.27;;;8.10;;
78844;SDS011;68195;50.854;2.860;2023-05-07T03:46:52;11.63;;;8.20;;
78844;SDS011;68195;50.854;2.860;2023-05-07T03:49:20;12.07;;;8.68;;
78844;SDS011;68195;50.854;2.860;2023-05-07T03:51:48;11.05;;;7.78;;
78844;SDS011;68195;50.854;2.860;2023-05-07T03:56:41;11.75;;;6.88;;
78844;SDS011;68195;50.854;2.860;2023-05-07T03:59:07;15.05;;;8.77;;
78844;SDS011;68195;50.854;2.860;2023-05-07T04:01:32;11.60;;;8.10;;
78844;SDS011;68195;50.854;2.860;2023-05-07T04:03:58;14.73;;;9.05;;
78844;SDS011;68195;50.854;2.860;2023-05-07T04:06:26;14.63;;;8.40;;
78844;SDS011;68195;50.854;2.860;2023-05-07T04:08:52;14.93;;;8.32;;
78844;SDS011;68195;50.854;2.860;2023-05-07T04:13:45;12.40;;;8.95;;
78844;SDS011;68195;50.854;2.860;2023-05-07T04:16:10;12.93;;;8.82;;
78844;SDS011;68195;50.854;2.860;2023-05-07T04:18:41;12.35;;;7.80;;
78844;SDS011;68195;50.854;2.860;2023-05-07T04:21:17;12.98;;;8.52;;
78844;SDS011;68195;50.854;2.860;2023-05-07T04:23:45;13.65;;;8.18;;
78844;SDS011;68195;50.854;2.860;2023-05-07T04:26:13;13.65;;;8.55;;
78844;SDS011;68195;50.854;2.860;2023-05-07T04:28:39;13.75;;;8.80;;
78844;SDS011;68195;50.854;2.860;2023-05-07T04:31:08;15.40;;;7.93;;
78844;SDS011;68195;50.854;2.860;2023-05-07T04:36:02;16.40;;;8.90;;
78844;SDS011;68195;50.854;2.860;2023-05-07T04:38:30;12.52;;;8.05;;
78844;SDS011;68195;50.854;2.860;2023-05-07T04:41:05;17.73;;;8.77;;
78844;SDS011;68195;50.854;2.860;2023-05-07T04:43:31;13.98;;;8.82;;
78844;SDS011;68195;50.854;2.860;2023-05-07T04:45:57;19.65;;;10.05;;
78844;SDS011;68195;50.854;2.860;2023-05-07T04:48:27;11.95;;;8.32;;
78844;SDS011;68195;50.854;2.860;2023-05-07T04:50:55;12.55;;;8.32;;
78844;SDS011;68195;50.854;2.860;2023-05-07T04:53:20;14.25;;;8.65;;
78844;SDS011;68195;50.854;2.860;2023-05-07T04:55:46;13.07;;;9.20;;
78844;SDS011;68195;50.854;2.860;2023-05-07T04:58:11;14.80;;;8.75;;
78844;SDS011;68195;50.854;2.860;2023-05-07T05:00:37;13.93;;;8.95;;
78844;SDS011;68195;50.854;2.860;2023-05-07T05:03:10;16.17;;;9.55;;
78844;SDS011;68195;50.854;2.860;2023-05-07T05:05:36;14.20;;;8.13;;
78844;SDS011;68195;50.854;2.860;2023-05-07T05:08:03;14.60;;;8.40;;
78844;SDS011;68195;50.854;2.860;2023-05-07T05:12:56;11.80;;;7.85;;
78844;SDS011;68195;50.854;2.860;2023-05-07T05:17:49;11.77;;;8.73;;
78844;SDS011;68195;50.854;2.860;2023-05-07T05:22:41;15.68;;;9.88;;
78844;SDS011;68195;50.854;2.860;2023-05-07T05:25:07;13.13;;;8.65;;
78844;SDS011;68195;50.854;2.860;2023-05-07T05:29:58;12.13;;;8.37;;
78844;SDS011;68195;50.854;2.860;2023-05-07T05:32:23;13.32;;;9.18;;
78844;SDS011;68195;50.854;2.860;2023-05-07T05:34:48;12.93;;;8.02;;
78844;SDS011;68195;50.854;2.860;2023-05-07T05:37:16;12.25;;;7.95;;
78844;SDS011;68195;50.854;2.860;2023-05-07T05:42:07;14.90;;;9.38;;
78844;SDS011;68195;50.854;2.860;2023-05-07T05:44:32;14.63;;;8.77;;
78844;SDS011;68195;50.854;2.860;2023-05-07T05:46:58;17.83;;;9.82;;
78844;SDS011;68195;50.854;2.860;2023-05-07T05:49:25;17.35;;;9.52;;
78844;SDS011;68195;50.854;2.860;2023-05-07T05:54:16;12.03;;;8.77;;
78844;SDS011;68195;50.854;2.860;2023-05-07T05:56:44;12.85;;;9.30;;
78844;SDS011;68195;50.854;2.860;2023-05-07T05:59:10;15.55;;;9.57;;
78844;SDS011;68195;50.854;2.860;2023-05-07T06:04:05;15.93;;;9.90;;
78844;SDS011;68195;50.854;2.860;2023-05-07T06:08:58;14.00;;;8.75;;
78844;SDS011;68195;50.854;2.860;2023-05-07T06:13:50;14.07;;;10.18;;
78844;SDS011;68195;50.854;2.860;2023-05-07T06:16:18;20.50;;;10.52;;
78844;SDS011;68195;50.854;2.860;2023-05-07T06:21:10;13.23;;;9.55;;
78844;SDS011;68195;50.854;2.860;2023-05-07T06:26:03;13.13;;;9.20;;
78844;SDS011;68195;50.854;2.860;2023-05-07T06:28:30;17.08;;;10.18;;
78844;SDS011;68195;50.854;2.860;2023-05-07T06:31:21;17.27;;;9.73;;
78844;SDS011;68195;50.854;2.860;2023-05-07T06:33:49;18.50;;;10.02;;
78844;SDS011;68195;50.854;2.860;2023-05-07T06:36:15;14.85;;;10.38;;
78844;SDS011;68195;50.854;2.860;2023-05-07T06:38:42;15.70;;;10.75;;
78844;SDS011;68195;50.854;2.860;2023-05-07T06:41:08;13.65;;;9.95;;
78844;SDS011;68195;50.854;2.860;2023-05-07T06:45:58;14.03;;;9.83;;
78844;SDS011;68195;50.854;2.860;2023-05-07T06:48:24;12.82;;;9.43;;
78844;SDS011;68195;50.854;2.860;2023-05-07T06:50:51;16.33;;;10.13;;
78844;SDS011;68195;50.854;2.860;2023-05-07T06:55:49;14.30;;;8.75;;
78844;SDS011;68195;50.854;2.860;2023-05-07T07:00:40;15.43;;;8.57;;
78844;SDS011;68195;50.854;2.860;2023-05-07T07:03:06;13.73;;;9.95;;
78844;SDS011;68195;50.854;2.860;2023-05-07T07:05:31;17.30;;;9.40;;
78844;SDS011;68195;50.854;2.860;2023-05-07T07:07:56;14.68;;;9.40;;
78844;SDS011;68195;50.854;2.860;2023-05-07T07:10:22;12.52;;;8.85;;
78844;SDS011;68195;50.854;2.860;2023-05-07T07:12:48;14.70;;;9.48;;
78844;SDS011;68195;50.854;2.860;2023-05-07T07:15:17;12.63;;;8.48;;
78844;SDS011;68195;50.854;2.860;2023-05-07T07:17:45;12.38;;;9.43;;
78844;SDS011;68195;50.854;2.860;2023-05-07T07:20:10;15.65;;;8.32;;
78844;SDS011;68195;50.854;2.860;2023-05-07T07:22:38;14.68;;;8.15;;
78844;SDS011;68195;50.854;2.860;2023-05-07T07:25:06;11.88;;;8.23;;
78844;SDS011;68195;50.854;2.860;2023-05-07T07:27:31;14.43;;;8.20;;
78844;SDS011;68195;50.854;2.860;2023-05-07T07:29:59;16.70;;;8.45;;
78844;SDS011;68195;50.854;2.860;2023-05-07T07:32:25;13.02;;;8.30;;
78844;SDS011;68195;50.854;2.860;2023-05-07T07:34:50;11.30;;;8.30;;
78844;SDS011;68195;50.854;2.860;2023-05-07T07:37:16;13.93;;;7.53;;
78844;SDS011;68195;50.854;2.860;2023-05-07T07:39:41;13.50;;;7.97;;
78844;SDS011;68195;50.854;2.860;2023-05-07T07:42:09;12.52;;;9.45;;
78844;SDS011;68195;50.854;2.860;2023-05-07T07:44:35;11.75;;;8.52;;
78844;SDS011;68195;50.854;2.860;2023-05-07T07:47:04;15.73;;;9.45;;
78844;SDS011;68195;50.854;2.860;2023-05-07T07:49:29;14.18;;;8.77;;
78844;SDS011;68195;50.854;2.860;2023-05-07T07:51:55;10.93;;;7.78;;
78844;SDS011;68195;50.854;2.860;2023-05-07T07:54:23;11.05;;;8.00;;
78844;SDS011;68195;50.854;2.860;2023-05-07T07:56:51;13.90;;;8.80;;
78844;SDS011;68195;50.854;2.860;2023-05-07T07:59:21;13.80;;;9.40;;
78844;SDS011;68195;50.854;2.860;2023-05-07T08:01:46;13.15;;;9.63;;
78844;SDS011;68195;50.854;2.860;2023-05-07T08:04:15;11.57;;;8.80;;
78844;SDS011;68195;50.854;2.860;2023-05-07T08:06:40;15.30;;;8.52;;
78844;SDS011;68195;50.854;2.860;2023-05-07T08:09:08;15.00;;;8.70;;
78844;SDS011;68195;50.854;2.860;2023-05-07T08:11:34;12.32;;;7.82;;
78844;SDS011;68195;50.854;2.860;2023-05-07T08:13:59;13.95;;;6.65;;
78844;SDS011;68195;50.854;2.860;2023-05-07T08:16:25;11.15;;;6.68;;
78844;SDS011;68195;50.854;2.860;2023-05-07T08:18:53;9.93;;;6.35;;
78844;SDS011;68195;50.854;2.860;2023-05-07T08:21:18;13.43;;;7.15;;
78844;SDS011;68195;50.854;2.860;2023-05-07T08:23:43;12.35;;;7.07;;
78844;SDS011;68195;50.854;2.860;2023-05-07T08:26:09;10.82;;;7.32;;
78844;SDS011;68195;50.854;2.860;2023-05-07T08:28:35;9.00;;;6.88;;
78844;SDS011;68195;50.854;2.860;2023-05-07T08:31:00;10.15;;;6.70;;
78844;SDS011;68195;50.854;2.860;2023-05-07T08:33:26;10.77;;;6.28;;
78844;SDS011;68195;50.854;2.860;2023-05-07T08:35:51;8.60;;;6.45;;
78844;SDS011;68195;50.854;2.860;2023-05-07T08:38:17;10.68;;;6.97;;
78844;SDS011;68195;50.854;2.860;2023-05-07T08:40:42;8.85;;;6.80;;
78844;SDS011;68195;50.854;2.860;2023-05-07T08:43:08;10.43;;;6.93;;
78844;SDS011;68195;50.854;2.860;2023-05-07T08:48:08;10.55;;;6.68;;
78844;SDS011;68195;50.854;2.860;2023-05-07T08:50:37;9.23;;;6.32;;
78844;SDS011;68195;50.854;2.860;2023-05-07T08:53:05;10.55;;;6.28;;
78844;SDS011;68195;50.854;2.860;2023-05-07T08:55:31;10.68;;;5.97;;
78844;SDS011;68195;50.854;2.860;2023-05-07T08:57:56;11.93;;;6.55;;
78844;SDS011;68195;50.854;2.860;2023-05-07T09:00:24;10.00;;;6.40;;
78844;SDS011;68195;50.854;2.860;2023-05-07T09:02:50;11.43;;;7.32;;
78844;SDS011;68195;50.854;2.860;2023-05-07T09:05:18;10.63;;;6.38;;
78844;SDS011;68195;50.854;2.860;2023-05-07T09:07:43;7.32;;;5.43;;
78844;SDS011;68195;50.854;2.860;2023-05-07T09:10:09;11.15;;;6.45;;
78844;SDS011;68195;50.854;2.860;2023-05-07T09:12:38;12.38;;;6.72;;
78844;SDS011;68195;50.854;2.860;2023-05-07T09:15:04;10.80;;;7.45;;
78844;SDS011;68195;50.854;2.860;2023-05-07T09:17:30;10.73;;;5.85;;
78844;SDS011;68195;50.854;2.860;2023-05-07T09:19:56;10.20;;;6.57;;
78844;SDS011;68195;50.854;2.860;2023-05-07T09:22:21;9.05;;;6.70;;
78844;SDS011;68195;50.854;2.860;2023-05-07T09:24:47;8.30;;;6.07;;
78844;SDS011;68195;50.854;2.860;2023-05-07T09:27:13;9.35;;;5.93;;
78844;SDS011;68195;50.854;2.860;2023-05-07T09:29:38;9.93;;;6.50;;
78844;SDS011;68195;50.854;2.860;2023-05-07T09:32:07;8.07;;;6.10;;
78844;SDS011;68195;50.854;2.860;2023-05-07T09:34:35;10.75;;;7.30;;
78844;SDS011;68195;50.854;2.860;2023-05-07T09:37:02;10.20;;;8.57;;
78844;SDS011;68195;50.854;2.860;2023-05-07T09:39:41;10.68;;;8.30;;
78844;SDS011;68195;50.854;2.860;2023-05-07T09:42:09;12.40;;;9.27;;
78844;SDS011;68195;50.854;2.860;2023-05-07T09:44:38;12.18;;;9.45;;
78844;SDS011;68195;50.854;2.860;2023-05-07T09:47:05;13.52;;;9.63;;
78844;SDS011;68195;50.854;2.860;2023-05-07T09:49:35;11.00;;;8.70;;
78844;SDS011;68195;50.854;2.860;2023-05-07T09:52:02;11.00;;;8.77;;
78844;SDS011;68195;50.854;2.860;2023-05-07T09:54:28;13.43;;;8.45;;
78844;SDS011;68195;50.854;2.860;2023-05-07T09:56:54;11.85;;;8.05;;
78844;SDS011;68195;50.854;2.860;2023-05-07T09:59:23;12.43;;;8.00;;
78844;SDS011;68195;50.854;2.860;2023-05-07T10:01:50;13.02;;;6.97;;
78844;SDS011;68195;50.854;2.860;2023-05-07T10:04:17;10.68;;;8.48;;
78844;SDS011;68195;50.854;2.860;2023-05-07T10:06:45;11.02;;;7.45;;
78844;SDS011;68195;50.854;2.860;2023-05-07T10:09:11;14.05;;;7.68;;
78844;SDS011;68195;50.854;2.860;2023-05-07T10:11:41;12.13;;;7.47;;
78844;SDS011;68195;50.854;2.860;2023-05-07T10:14:08;10.73;;;7.43;;
78844;SDS011;68195;50.854;2.860;2023-05-07T10:16:35;10.55;;;7.57;;
78844;SDS011;68195;50.854;2.860;2023-05-07T10:19:08;10.20;;;7.15;;
78844;SDS011;68195;50.854;2.860;2023-05-07T10:21:37;9.77;;;6.60;;
78844;SDS011;68195;50.854;2.860;2023-05-07T10:24:08;10.95;;;7.75;;
78844;SDS011;68195;50.854;2.860;2023-05-07T10:26:39;8.90;;;7.10;;
78844;SDS011;68195;50.854;2.860;2023-05-07T10:29:55;10.70;;;7.07;;
78844;SDS011;68195;50.854;2.860;2023-05-07T10:32:42;9.25;;;6.05;;
78844;SDS011;68195;50.854;2.860;2023-05-07T10:35:20;10.48;;;6.45;;
78844;SDS011;68195;50.854;2.860;2023-05-07T10:37:51;9.35;;;7.25;;
78844;SDS011;68195;50.854;2.860;2023-05-07T10:40:17;12.15;;;7.10;;
78844;SDS011;68195;50.854;2.860;2023-05-07T10:43:02;9.80;;;7.00;;
78844;SDS011;68195;50.854;2.860;2023-05-07T10:45:29;11.93;;;8.13;;
78844;SDS011;68195;50.854;2.860;2023-05-07T10:50:35;11.90;;;8.10;;
78844;SDS011;68195;50.854;2.860;2023-05-07T10:55:44;15.00;;;9.23;;
78844;SDS011;68195;50.854;2.860;2023-05-07T11:03:23;13.13;;;9.20;;
78844;SDS011;68195;50.854;2.860;2023-05-07T11:06:11;12.48;;;9.57;;
78844;SDS011;68195;50.854;2.860;2023-05-07T11:08:54;11.63;;;9.45;;
78844;SDS011;68195;50.854;2.860;2023-05-07T11:11:42;13.15;;;9.38;;
78844;SDS011;68195;50.854;2.860;2023-05-07T11:17:05;12.55;;;9.88;;
78844;SDS011;68195;50.854;2.860;2023-05-07T11:25:00;16.20;;;11.07;;
78844;SDS011;68195;50.854;2.860;2023-05-07T11:27:30;14.85;;;9.80;;
78844;SDS011;68195;50.854;2.860;2023-05-07T11:29:56;12.13;;;9.48;;
78844;SDS011;68195;50.854;2.860;2023-05-07T11:32:22;11.07;;;8.63;;
78844;SDS011;68195;50.854;2.860;2023-05-07T11:34:51;11.98;;;9.07;;
78844;SDS011;68195;50.854;2.860;2023-05-07T11:37:20;11.85;;;8.60;;
78844;SDS011;68195;50.854;2.860;2023-05-07T11:39:50;11.27;;;9.48;;
78844;SDS011;68195;50.854;2.860;2023-05-07T11:44:52;12.55;;;8.65;;
78844;SDS011;68195;50.854;2.860;2023-05-07T11:47:21;11.93;;;8.90;;
78844;SDS011;68195;50.854;2.860;2023-05-07T11:49:55;9.55;;;7.15;;
78844;SDS011;68195;50.854;2.860;2023-05-07T11:52:22;9.00;;;7.95;;
78844;SDS011;68195;50.854;2.860;2023-05-07T11:54:49;9.88;;;8.55;;
78844;SDS011;68195;50.854;2.860;2023-05-07T11:57:35;12.13;;;8.68;;
78844;SDS011;68195;50.854;2.860;2023-05-07T12:00:02;13.85;;;8.73;;
78844;SDS011;68195;50.854;2.860;2023-05-07T12:02:29;10.73;;;8.13;;
78844;SDS011;68195;50.854;2.860;2023-05-07T12:04:57;12.50;;;7.50;;
78844;SDS011;68195;50.854;2.860;2023-05-07T12:07:25;8.85;;;7.43;;
78844;SDS011;68195;50.854;2.860;2023-05-07T12:09:53;10.25;;;7.93;;
78844;SDS011;68195;50.854;2.860;2023-05-07T12:12:21;8.52;;;7.07;;
78844;SDS011;68195;50.854;2.860;2023-05-07T12:14:46;10.18;;;7.38;;
78844;SDS011;68195;50.854;2.860;2023-05-07T12:17:14;9.45;;;6.50;;
78844;SDS011;68195;50.854;2.860;2023-05-07T12:19:41;9.52;;;5.88;;
78844;SDS011;68195;50.854;2.860;2023-05-07T12:22:08;9.85;;;5.97;;
78844;SDS011;68195;50.854;2.860;2023-05-07T12:27:11;9.60;;;6.28;;
78844;SDS011;68195;50.854;2.860;2023-05-07T12:29:39;9.70;;;6.22;;
78844;SDS011;68195;50.854;2.860;2023-05-07T12:32:12;7.32;;;5.80;;
78844;SDS011;68195;50.854;2.860;2023-05-07T12:34:39;11.40;;;6.30;;
78844;SDS011;68195;50.854;2.860;2023-05-07T12:37:04;9.80;;;5.97;;
78844;SDS011;68195;50.854;2.860;2023-05-07T12:39:32;8.50;;;6.57;;
78844;SDS011;68195;50.854;2.860;2023-05-07T12:41:58;9.25;;;6.65;;
78844;SDS011;68195;50.854;2.860;2023-05-07T12:44:35;11.80;;;6.13;;
78844;SDS011;68195;50.854;2.860;2023-05-07T12:47:01;12.52;;;7.22;;
78844;SDS011;68195;50.854;2.860;2023-05-07T12:49:27;10.23;;;5.97;;
78844;SDS011;68195;50.854;2.860;2023-05-07T12:51:53;10.88;;;6.40;;
78844;SDS011;68195;50.854;2.860;2023-05-07T12:57:04;8.65;;;6.10;;
78844;SDS011;68195;50.854;2.860;2023-05-07T12:59:40;9.00;;;5.35;;
78844;SDS011;68195;50.854;2.860;2023-05-07T13:02:06;8.50;;;6.20;;
78844;SDS011;68195;50.854;2.860;2023-05-07T13:04:32;7.97;;;6.40;;
78844;SDS011;68195;50.854;2.860;2023-05-07T13:07:01;7.47;;;5.85;;
78844;SDS011;68195;50.854;2.860;2023-05-07T13:09:27;10.43;;;6.72;;
78844;SDS011;68195;50.854;2.860;2023-05-07T13:11:54;8.43;;;5.85;;
78844;SDS011;68195;50.854;2.860;2023-05-07T13:14:26;10.98;;;6.78;;
78844;SDS011;68195;50.854;2.860;2023-05-07T13:16:51;8.45;;;5.57;;
78844;SDS011;68195;50.854;2.860;2023-05-07T13:19:19;11.90;;;5.88;;
78844;SDS011;68195;50.854;2.860;2023-05-07T13:21:46;11.93;;;5.90;;
78844;SDS011;68195;50.854;2.860;2023-05-07T13:24:12;10.05;;;5.38;;
78844;SDS011;68195;50.854;2.860;2023-05-07T13:26:37;7.90;;;5.18;;
78844;SDS011;68195;50.854;2.860;2023-05-07T13:29:02;6.82;;;5.47;;
78844;SDS011;68195;50.854;2.860;2023-05-07T13:31:33;9.65;;;5.75;;
78844;SDS011;68195;50.854;2.860;2023-05-07T13:33:58;8.82;;;5.97;;
78844;SDS011;68195;50.854;2.860;2023-05-07T13:36:24;10.25;;;5.80;;
78844;SDS011;68195;50.854;2.860;2023-05-07T13:38:51;10.55;;;6.30;;
78844;SDS011;68195;50.854;2.860;2023-05-07T13:41:17;9.50;;;6.53;;
78844;SDS011;68195;50.854;2.860;2023-05-07T13:43:42;12.68;;;6.72;;
78844;SDS011;68195;50.854;2.860;2023-05-07T13:46:08;10.63;;;7.32;;
78844;SDS011;68195;50.854;2.860;2023-05-07T13:48:33;8.60;;;6.72;;
78844;SDS011;68195;50.854;2.860;2023-05-07T13:50:58;8.98;;;6.88;;
78844;SDS011;68195;50.854;2.860;2023-05-07T13:53:24;11.82;;;6.90;;
78844;SDS011;68195;50.854;2.860;2023-05-07T13:55:56;9.68;;;7.20;;
78844;SDS011;68195;50.854;2.860;2023-05-07T13:58:22;11.73;;;6.78;;
78844;SDS011;68195;50.854;2.860;2023-05-07T14:00:49;10.38;;;7.20;;
78844;SDS011;68195;50.854;2.860;2023-05-07T14:03:17;10.07;;;6.50;;
78844;SDS011;68195;50.854;2.860;2023-05-07T14:05:46;11.02;;;6.78;;
78844;SDS011;68195;50.854;2.860;2023-05-07T14:08:21;8.63;;;6.63;;
78844;SDS011;68195;50.854;2.860;2023-05-07T14:10:46;10.45;;;7.35;;
78844;SDS011;68195;50.854;2.860;2023-05-07T14:13:12;10.50;;;8.10;;
78844;SDS011;68195;50.854;2.860;2023-05-07T14:15:40;9.50;;;7.43;;
78844;SDS011;68195;50.854;2.860;2023-05-07T14:18:11;9.75;;;6.43;;
78844;SDS011;68195;50.854;2.860;2023-05-07T14:20:38;13.32;;;9.43;;
78844;SDS011;68195;50.854;2.860;2023-05-07T14:23:04;11.75;;;9.15;;
78844;SDS011;68195;50.854;2.860;2023-05-07T14:25:31;9.68;;;8.15;;
78844;SDS011;68195;50.854;2.860;2023-05-07T14:27:57;11.32;;;7.70;;
78844;SDS011;68195;50.854;2.860;2023-05-07T14:30:22;11.52;;;8.73;;
78844;SDS011;68195;50.854;2.860;2023-05-07T14:32:50;12.40;;;9.88;;
78844;SDS011;68195;50.854;2.860;2023-05-07T14:35:18;13.32;;;9.95;;
78844;SDS011;68195;50.854;2.860;2023-05-07T14:37:44;14.70;;;10.77;;
78844;SDS011;68195;50.854;2.860;2023-05-07T14:40:12;11.63;;;8.05;;
78844;SDS011;68195;50.854;2.860;2023-05-07T14:42:37;11.68;;;7.53;;
78844;SDS011;68195;50.854;2.860;2023-05-07T14:45:02;10.95;;;7.57;;
78844;SDS011;68195;50.854;2.860;2023-05-07T14:47:31;11.10;;;7.43;;
78844;SDS011;68195;50.854;2.860;2023-05-07T14:50:01;10.70;;;8.07;;
78844;SDS011;68195;50.854;2.860;2023-05-07T14:52:26;9.77;;;7.38;;
78844;SDS011;68195;50.854;2.860;2023-05-07T14:54:52;15.82;;;9.02;;
78844;SDS011;68195;50.854;2.860;2023-05-07T14:57:17;9.32;;;6.53;;
78844;SDS011;68195;50.854;2.860;2023-05-07T14:59:44;10.38;;;6.70;;
78844;SDS011;68195;50.854;2.860;2023-05-07T15:02:10;7.97;;;5.40;;
78844;SDS011;68195;50.854;2.860;2023-05-07T15:04:39;10.07;;;5.95;;
78844;SDS011;68195;50.854;2.860;2023-05-07T15:07:14;7.32;;;5.30;;
78844;SDS011;68195;50.854;2.860;2023-05-07T15:09:45;7.07;;;4.78;;
78844;SDS011;68195;50.854;2.860;2023-05-07T15:12:13;6.45;;;4.85;;
78844;SDS011;68195;50.854;2.860;2023-05-07T15:14:39;9.98;;;5.43;;
78844;SDS011;68195;50.854;2.860;2023-05-07T15:17:06;8.13;;;6.30;;
78844;SDS011;68195;50.854;2.860;2023-05-07T15:19:32;8.73;;;5.90;;
78844;SDS011;68195;50.854;2.860;2023-05-07T15:21:58;9.07;;;5.32;;
78844;SDS011;68195;50.854;2.860;2023-05-07T15:24:27;10.43;;;6.43;;
78844;SDS011;68195;50.854;2.860;2023-05-07T15:26:53;7.60;;;6.38;;
78844;SDS011;68195;50.854;2.860;2023-05-07T15:29:19;6.70;;;4.95;;
78844;SDS011;68195;50.854;2.860;2023-05-07T15:31:45;6.40;;;5.50;;
78844;SDS011;68195;50.854;2.860;2023-05-07T15:34:11;8.18;;;6.40;;
78844;SDS011;68195;50.854;2.860;2023-05-07T15:36:38;14.35;;;8.63;;
78844;SDS011;68195;50.854;2.860;2023-05-07T15:39:04;12.40;;;9.13;;
78844;SDS011;68195;50.854;2.860;2023-05-07T15:41:29;14.48;;;9.10;;
78844;SDS011;68195;50.854;2.860;2023-05-07T15:44:01;10.80;;;9.68;;
78844;SDS011;68195;50.854;2.860;2023-05-07T15:46:29;12.15;;;9.10;;
78844;SDS011;68195;50.854;2.860;2023-05-07T15:48:55;13.13;;;10.00;;